Time;durP1;ratioP1;P1;durP2;ratioP2;P2;SDS_P1;SDS_P2;PMS_P1;PMS_P2;Temp;Humidity;BMP_temperature;BMP_pressure;BME280_temperature;BME280_humidity;BME280_pressure;Samples;Min_cycle;Max_cycle;Signal;HPM_P1;HPM_P2
2022/10/23 00:01:46;;;;;;;23.33;12.83;;;;;;;15.27;89.05;100635.22;5032021;28;20223;-62
2022/10/23 00:04:17;;;;;;;21.17;13.80;;;;;;;15.24;89.06;100627.53;5025317;28;20213;-62
2022/10/23 00:06:46;;;;;;;21.23;11.70;;;;;;;15.28;89.06;100625.38;5028831;28;20208;-61
2022/10/23 00:09:16;;;;;;;20.83;11.07;;;;;;;15.27;89.11;100613.84;5028892;28;20851;-63
2022/10/23 00:11:47;;;;;;;17.70;9.57;;;;;;;15.31;89.19;100616.97;5027047;28;20578;-62
2022/10/23 00:14:16;;;;;;;18.63;9.50;;;;;;;15.31;88.88;100608.97;5021336;28;20299;-63
2022/10/23 00:16:44;;;;;;;13.33;7.70;;;;;;;15.30;89.37;100602.78;5029552;28;20212;-62
2022/10/23 00:19:12;;;;;;;12.30;7.70;;;;;;;15.34;89.48;100604.13;5025591;28;20208;-62
2022/10/23 00:21:40;;;;;;;14.17;8.03;;;;;;;15.31;89.21;100604.47;5027546;28;20208;-63
2022/10/23 00:24:09;;;;;;;14.30;8.33;;;;;;;15.35;89.59;100604.97;5025448;28;20240;-62
2022/10/23 00:26:42;;;;;;;12.10;7.77;;;;;;;15.38;89.75;100594.75;5029901;28;20201;-62
2022/10/23 00:29:11;;;;;;;12.60;7.17;;;;;;;15.33;89.29;100594.44;5030978;28;20232;-63
2022/10/23 00:31:39;;;;;;;13.83;8.33;;;;;;;15.30;89.21;100585.97;5029262;28;20677;-62
2022/10/23 00:34:07;;;;;;;14.67;8.10;;;;;;;15.23;89.48;100585.81;5033034;28;20235;-62
2022/10/23 00:36:36;;;;;;;13.37;8.47;;;;;;;15.23;89.65;100588.47;5031270;28;20215;-62
2022/10/23 00:39:04;;;;;;;14.13;7.77;;;;;;;15.20;89.37;100586.19;5027535;28;20208;-63
2022/10/23 00:41:32;;;;;;;11.70;7.13;;;;;;;15.17;89.87;100586.50;5030760;28;20240;-61
2022/10/23 00:44:07;;;;;;;16.13;8.83;;;;;;;15.12;90.43;100580.03;5030132;28;20348;-62
2022/10/23 00:46:38;;;;;;;19.53;8.03;;;;;;;15.13;90.79;100573.69;5032215;28;20204;-61
2022/10/23 00:49:07;;;;;;;13.67;7.63;;;;;;;15.21;90.36;100582.50;5031935;28;20231;-60
2022/10/23 00:51:40;;;;;;;15.47;7.67;;;;;;;15.27;89.65;100581.78;5028528;28;20542;-61
2022/10/23 00:54:09;;;;;;;13.53;8.40;;;;;;;15.29;90.00;100578.94;5022420;28;20591;-63
2022/10/23 00:56:52;;;;;;;13.73;7.40;;;;;;;15.31;90.14;100577.75;5027635;28;20207;-62
2022/10/23 00:59:20;;;;;;;14.53;7.50;;;;;;;15.22;90.00;100572.63;5029400;28;20236;-61
2022/10/23 01:01:49;;;;;;;12.90;7.63;;;;;;;15.17;90.35;100559.81;5031530;28;20211;-62
2022/10/23 01:04:17;;;;;;;12.67;7.13;;;;;;;15.18;90.44;100552.63;5028319;28;20238;-60
2022/10/23 01:06:55;;;;;;;13.00;6.80;;;;;;;15.11;90.67;100563.19;5029088;28;20204;-61
2022/10/23 01:09:30;;;;;;;15.33;7.93;;;;;;;15.11;90.71;100563.19;5030731;28;20258;-62
2022/10/23 01:12:03;;;;;;;12.23;7.07;;;;;;;15.11;90.33;100549.00;5025425;28;20361;-62
2022/10/23 01:14:40;;;;;;;16.77;7.63;;;;;;;15.12;90.40;100562.19;5030041;28;20737;-61
2022/10/23 01:17:16;;;;;;;12.80;7.53;;;;;;;15.13;90.62;100566.50;5029555;28;20257;-61
2022/10/23 01:19:56;;;;;;;15.40;7.33;;;;;;;15.12;89.76;100566.69;5030688;28;20212;-61
2022/10/23 01:22:42;;;;;;;11.87;7.20;;;;;;;15.12;89.83;100564.84;5030536;28;20216;-62
2022/10/23 01:25:23;;;;;;;20.33;7.00;;;;;;;15.17;89.14;100559.81;5032297;28;20259;-61
2022/10/23 01:27:58;;;;;;;13.00;6.40;;;;;;;15.11;89.30;100555.19;5032154;28;20583;-63
2022/10/23 01:30:26;;;;;;;11.43;6.70;;;;;;;15.09;89.17;100554.50;5014824;28;20211;-62
2022/10/23 01:32:59;;;;;;;15.27;7.17;;;;;;;15.00;89.42;100556.41;5030939;28;20217;-61
2022/10/23 01:35:32;;;;;;;14.73;6.50;;;;;;;14.98;89.46;100554.91;5029560;28;20200;-61
2022/10/23 01:38:06;;;;;;;12.63;7.03;;;;;;;14.95;89.49;100558.72;5032091;28;20216;-62
2022/10/23 01:40:38;;;;;;;12.60;6.73;;;;;;;14.93;90.13;100563.44;5029932;28;20720;-61
2022/10/23 01:43:13;;;;;;;15.33;7.43;;;;;;;14.90;89.51;100562.94;5042294;28;20212;-62
2022/10/23 01:45:43;;;;;;;15.63;7.87;;;;;;;14.90;89.63;100557.59;5051199;28;20238;-62
2022/10/23 01:48:16;;;;;;;16.63;8.83;;;;;;;14.95;89.35;100547.25;5047222;28;20231;-60
2022/10/23 01:50:44;;;;;;;26.20;12.60;;;;;;;15.01;88.75;100549.22;5050659;28;20299;-61
2022/10/23 01:53:12;;;;;;;34.80;15.67;;;;;;;15.04;88.80;100546.16;5049906;28;20900;-60
2022/10/23 01:55:42;;;;;;;33.03;16.67;;;;;;;14.99;89.11;100538.69;5054478;28;20736;-61
2022/10/23 01:58:14;;;;;;;31.33;14.43;;;;;;;15.00;89.10;100520.84;5060556;28;20656;-61
2022/10/23 02:00:44;;;;;;;27.43;13.53;;;;;;;14.99;89.11;100509.34;5050041;28;20269;-61
2022/10/23 02:03:13;;;;;;;32.40;15.03;;;;;;;14.91;89.69;100511.22;5055429;28;20253;-62
2022/10/23 02:05:41;;;;;;;32.77;15.97;;;;;;;14.90;90.06;100520.22;5049140;28;20258;-59
2022/10/23 02:08:09;;;;;;;23.70;12.77;;;;;;;14.85;89.77;100528.78;5048021;28;20630;-64
2022/10/23 02:10:45;;;;;;;37.03;17.60;;;;;;;14.89;89.50;100519.41;5047041;28;20656;-61
2022/10/23 02:13:23;;;;;;;34.87;15.97;;;;;;;14.86;90.41;100518.94;5053147;28;20235;-62
2022/10/23 02:16:00;;;;;;;34.67;13.87;;;;;;;14.84;90.86;100523.59;5049699;28;20659;-63
2022/10/23 02:18:37;;;;;;;28.50;13.87;;;;;;;14.88;89.96;100522.22;5052235;28;20714;-61
2022/10/23 02:21:10;;;;;;;26.77;14.63;;;;;;;14.84;89.82;100520.94;5051692;28;20207;-62
2022/10/23 02:23:40;;;;;;;26.47;13.30;;;;;;;14.77;90.09;100519.97;5047138;28;20228;-62
2022/10/23 02:26:13;;;;;;;33.20;14.17;;;;;;;14.71;90.27;100520.66;5052659;28;20254;-63
2022/10/23 02:28:48;;;;;;;29.70;14.33;;;;;;;14.69;90.43;100524.31;5044732;28;20220;-63
2022/10/23 02:31:19;;;;;;;33.40;13.93;;;;;;;14.72;90.17;100522.31;5049800;28;20233;-62
2022/10/23 02:33:47;;;;;;;24.13;13.47;;;;;;;14.70;90.30;100519.81;5048196;28;20207;-61
2022/10/23 02:36:15;;;;;;;29.27;13.30;;;;;;;14.71;90.60;100521.47;5047947;28;20212;-62
2022/10/23 02:38:44;;;;;;;29.73;14.17;;;;;;;14.72;90.16;100520.47;5047852;28;20223;-61
2022/10/23 02:41:19;;;;;;;30.17;15.53;;;;;;;14.75;90.05;100512.13;5047110;28;20200;-60
2022/10/23 02:43:57;;;;;;;36.67;16.90;;;;;;;14.76;89.50;100508.47;5047571;28;20705;-63
2022/10/23 02:46:33;;;;;;;38.53;19.87;;;;;;;14.78;89.46;100502.94;5053602;28;20211;-63
2022/10/23 02:49:10;;;;;;;55.80;30.30;;;;;;;14.73;89.28;100508.78;5048319;28;20219;-62
2022/10/23 02:51:50;;;;;;;77.73;36.07;;;;;;;14.76;89.31;100502.28;5046345;28;20219;-63
2022/10/23 02:54:27;;;;;;;89.87;45.40;;;;;;;14.75;89.84;100511.31;5047390;28;20207;-64
2022/10/23 02:57:02;;;;;;;66.30;37.07;;;;;;;14.72;89.99;100492.94;5046934;28;20220;-63
2022/10/23 02:59:37;;;;;;;76.13;39.87;;;;;;;14.72;89.62;100490.28;5044104;28;21276;-62
2022/10/23 03:02:11;;;;;;;97.77;48.80;;;;;;;14.71;89.49;100499.28;5046306;28;21227;-62
2022/10/23 03:04:42;;;;;;;93.77;47.93;;;;;;;14.63;89.67;100498.34;5048894;28;20299;-61
2022/10/23 03:07:11;;;;;;;70.20;37.60;;;;;;;14.60;89.38;100489.84;5046804;28;20204;-61
2022/10/23 03:09:39;;;;;;;57.20;30.13;;;;;;;14.60;88.89;100477.31;5050177;28;20731;-61
2022/10/23 03:12:07;;;;;;;59.83;31.73;;;;;;;14.57;88.92;100488.34;5055907;28;20617;-62
2022/10/23 03:14:37;;;;;;;69.13;35.83;;;;;;;14.59;89.47;100489.03;5048619;28;20802;-63
2022/10/23 03:17:05;;;;;;;75.30;37.60;;;;;;;14.62;89.38;100479.81;5044693;28;20277;-60
2022/10/23 03:19:32;;;;;;;75.37;37.27;;;;;;;14.63;89.52;100468.97;5051184;28;20200;-63
2022/10/23 03:22:00;;;;;;;79.57;36.67;;;;;;;14.72;89.59;100459.09;5045508;28;20668;-61
2022/10/23 03:24:28;;;;;;;77.53;37.43;;;;;;;14.79;88.93;100464.56;5047482;28;20273;-62
2022/10/23 03:26:55;;;;;;;81.97;42.33;;;;;;;14.81;89.18;100467.88;5051472;28;20506;-65
2022/10/23 03:29:23;;;;;;;90.27;48.87;;;;;;;14.73;89.94;100471.44;5052539;28;20298;-65
2022/10/23 03:31:52;;;;;;;106.03;52.30;;;;;;;14.66;90.12;100459.78;5053824;28;20208;-65
2022/10/23 03:34:19;;;;;;;110.67;57.67;;;;;;;14.61;91.32;100470.97;5060286;28;20273;-64
2022/10/23 03:36:47;;;;;;;117.60;55.33;;;;;;;14.62;91.54;100466.47;5050804;28;20211;-64
2022/10/23 03:39:15;;;;;;;106.03;48.73;;;;;;;14.60;91.64;100465.84;5053807;28;20215;-64
2022/10/23 03:41:42;;;;;;;101.10;47.20;;;;;;;14.57;91.91;100467.00;5051762;28;20207;-65
2022/10/23 03:44:10;;;;;;;90.57;46.90;;;;;;;14.49;92.85;100469.72;5051174;28;20265;-63
2022/10/23 03:46:37;;;;;;;74.27;38.80;;;;;;;14.50;93.11;100476.72;5054284;28;20642;-65
2022/10/23 03:49:06;;;;;;;71.30;35.07;;;;;;;14.50;93.13;100471.38;5057617;28;20320;-65
2022/10/23 03:51:34;;;;;;;65.43;31.87;;;;;;;14.51;93.18;100478.34;5050928;28;20244;-65
2022/10/23 03:54:02;;;;;;;61.47;29.37;;;;;;;14.59;92.23;100475.69;5053074;28;20656;-64
2022/10/23 03:56:29;;;;;;;74.87;31.90;;;;;;;14.57;92.25;100472.34;5049509;28;20218;-64
2022/10/23 03:58:57;;;;;;;77.77;34.37;;;;;;;14.61;92.29;100478.16;5051666;28;20389;-64
2022/10/23 04:01:25;;;;;;;75.67;36.87;;;;;;;14.55;92.25;100479.69;5053979;28;20204;-65
2022/10/23 04:03:53;;;;;;;86.30;39.83;;;;;;;14.48;92.72;100481.38;5059121;28;20676;-65
2022/10/23 04:06:22;;;;;;;73.13;35.73;;;;;;;14.48;92.72;100481.38;5050311;28;20219;-64
2022/10/23 04:08:49;;;;;;;83.43;38.93;;;;;;;14.51;92.29;100499.69;5055276;28;20590;-63
2022/10/23 04:11:17;;;;;;;86.67;42.53;;;;;;;14.47;91.69;100493.06;5055812;28;20211;-64
2022/10/23 04:13:45;;;;;;;100.00;48.23;;;;;;;14.45;91.94;100492.41;5057435;28;20223;-66
2022/10/23 04:16:13;;;;;;;125.30;58.13;;;;;;;14.49;90.91;100482.22;5050641;28;20226;-65
2022/10/23 04:18:41;;;;;;;105.23;53.70;;;;;;;14.49;90.40;100480.38;5057739;28;20969;-65
2022/10/23 04:21:09;;;;;;;103.30;49.57;;;;;;;14.48;90.92;100472.56;5056223;28;20214;-65
2022/10/23 04:23:38;;;;;;;88.67;43.97;;;;;;;14.46;90.70;100464.72;5050790;28;20604;-62
2022/10/23 04:26:06;;;;;;;104.00;49.10;;;;;;;14.45;90.55;100465.72;5054001;28;20215;-64
2022/10/23 04:28:33;;;;;;;88.87;47.90;;;;;;;14.34;90.79;100471.38;5054504;28;20258;-66
2022/10/23 04:31:01;;;;;;;94.90;48.60;;;;;;;14.26;90.59;100471.41;5054702;28;20238;-67
2022/10/23 04:33:29;;;;;;;98.10;47.43;;;;;;;14.19;91.50;100484.63;5061651;28;20742;-65
2022/10/23 04:35:56;;;;;;;107.83;52.47;;;;;;;14.24;91.82;100482.28;5056921;28;20211;-67
2022/10/23 04:38:24;;;;;;;108.07;53.70;;;;;;;14.26;91.25;100474.91;5057432;28;21945;-66
2022/10/23 04:40:53;;;;;;;114.17;60.73;;;;;;;14.31;90.98;100477.09;5052319;28;20703;-64
2022/10/23 04:43:21;;;;;;;133.27;66.03;;;;;;;14.27;91.17;100475.75;5061968;28;20211;-64
2022/10/23 04:45:49;;;;;;;122.77;61.90;;;;;;;14.26;90.77;100463.41;5059445;28;20215;-64
2022/10/23 04:48:17;;;;;;;129.70;61.70;;;;;;;14.30;90.77;100464.75;5052197;28;20203;-64
2022/10/23 04:50:55;;;;;;;114.33;56.80;;;;;;;14.34;90.48;100454.59;5056969;28;20269;-65
2022/10/23 04:53:22;;;;;;;118.30;55.13;;;;;;;14.33;90.25;100453.75;5059938;28;20498;-64
2022/10/23 04:55:51;;;;;;;110.00;51.80;;;;;;;14.24;90.43;100455.63;5055306;28;20220;-65
2022/10/23 04:58:20;;;;;;;103.73;51.37;;;;;;;14.24;90.64;100460.13;5051600;28;20241;-65
2022/10/23 05:00:48;;;;;;;99.50;49.70;;;;;;;14.18;90.51;100463.44;5056255;28;20298;-65
2022/10/23 05:03:17;;;;;;;94.13;47.23;;;;;;;14.18;90.61;100471.44;5048760;28;20238;-65
2022/10/23 05:05:45;;;;;;;81.33;42.93;;;;;;;14.08;91.16;100471.63;5055938;28;20268;-65
2022/10/23 05:08:14;;;;;;;85.77;45.27;;;;;;;14.10;91.55;100468.81;5050739;28;20221;-64
2022/10/23 05:10:45;;;;;;;92.53;49.77;;;;;;;14.08;92.05;100481.47;5056542;28;20235;-65
2022/10/23 05:13:12;;;;;;;105.73;57.63;;;;;;;14.12;91.96;100488.13;5056336;28;20280;-64
2022/10/23 05:15:41;;;;;;;115.83;61.47;;;;;;;14.10;91.26;100482.13;5050623;28;20204;-65
2022/10/23 05:18:13;;;;;;;106.47;57.33;;;;;;;14.13;91.40;100473.81;5057213;28;20207;-65
2022/10/23 05:20:42;;;;;;;99.87;55.97;;;;;;;14.18;91.04;100460.78;5058675;28;20255;-65
2022/10/23 05:23:11;;;;;;;99.23;53.37;;;;;;;14.16;91.15;100462.81;5050355;28;20207;-63
2022/10/23 05:25:39;;;;;;;106.77;57.13;;;;;;;14.12;91.14;100453.47;5059125;28;20618;-65
2022/10/23 05:28:07;;;;;;;102.30;55.97;;;;;;;14.13;91.04;100455.16;5059872;28;20711;-64
2022/10/23 05:30:35;;;;;;;121.37;61.47;;;;;;;14.18;90.20;100444.78;5053875;28;20235;-65
2022/10/23 05:33:04;;;;;;;106.80;57.43;;;;;;;14.09;89.82;100435.16;5058675;28;20230;-65
2022/10/23 05:35:31;;;;;;;97.70;53.20;;;;;;;14.13;89.63;100436.47;5059944;28;20255;-66
2022/10/23 05:38:01;;;;;;;101.30;50.40;;;;;;;14.10;90.00;100434.16;5053545;28;20211;-66
2022/10/23 05:40:29;;;;;;;98.87;48.67;;;;;;;14.08;89.96;100438.81;5057574;28;20214;-65
2022/10/23 05:42:57;;;;;;;79.10;43.20;;;;;;;14.02;90.35;100424.34;5054940;28;20217;-66
2022/10/23 05:45:27;;;;;;;77.73;41.73;;;;;;;13.91;91.38;100438.84;5058747;28;20218;-65
2022/10/23 05:47:55;;;;;;;73.23;41.23;;;;;;;13.94;91.58;100427.88;5057042;28;20211;-65
2022/10/23 05:50:39;;;;;;;68.17;36.30;;;;;;;13.91;91.94;100433.53;5063873;28;20219;-63
2022/10/23 05:53:06;;;;;;;68.90;38.13;;;;;;;13.97;91.51;100425.88;5055220;28;20222;-64
2022/10/23 05:55:34;;;;;;;61.70;36.10;;;;;;;13.94;91.60;100427.88;5055899;28;20210;-64
2022/10/23 05:58:02;;;;;;;62.57;33.50;;;;;;;13.93;91.58;100436.03;5061013;28;20251;-64
2022/10/23 06:00:30;;;;;;;62.73;34.50;;;;;;;13.88;91.86;100433.88;5062310;28;20237;-65
2022/10/23 06:02:59;;;;;;;58.30;31.97;;;;;;;13.92;91.55;100435.19;5060187;28;20289;-65
2022/10/23 06:05:27;;;;;;;52.27;28.63;;;;;;;13.91;91.57;100425.53;5064282;28;20231;-65
2022/10/23 06:07:58;;;;;;;49.33;28.23;;;;;;;13.90;91.71;100434.53;5057644;28;20220;-65
2022/10/23 06:10:26;;;;;;;47.50;27.70;;;;;;;13.88;91.81;100441.88;5056909;28;20234;-65
2022/10/23 06:12:53;;;;;;;50.73;27.80;;;;;;;13.91;91.36;100422.03;5062869;28;21479;-65
2022/10/23 06:15:21;;;;;;;55.60;28.73;;;;;;;13.93;90.89;100418.19;5059923;28;20203;-65
2022/10/23 06:17:48;;;;;;;41.17;26.67;;;;;;;14.00;90.45;100410.34;5062704;28;20234;-65
2022/10/23 06:20:16;;;;;;;44.43;25.57;;;;;;;14.00;90.37;100399.69;5058431;28;20220;-65
2022/10/23 06:22:44;;;;;;;40.27;23.60;;;;;;;14.02;89.99;100403.00;5060733;28;20218;-64
2022/10/23 06:25:13;;;;;;;45.63;24.93;;;;;;;14.02;90.04;100396.84;5059079;28;20632;-64
2022/10/23 06:27:41;;;;;;;55.13;27.13;;;;;;;14.00;90.98;100409.50;5058642;28;20204;-65
2022/10/23 06:30:10;;;;;;;49.87;28.23;;;;;;;13.99;91.61;100405.19;5057255;28;20210;-65
2022/10/23 06:32:37;;;;;;;53.00;29.27;;;;;;;13.98;92.30;100396.38;5059744;28;20276;-64
2022/10/23 06:35:06;;;;;;;70.77;31.37;;;;;;;14.05;92.34;100397.34;5064174;28;20237;-64
2022/10/23 06:37:34;;;;;;;64.23;29.60;;;;;;;14.08;92.69;100406.81;5061923;28;20751;-64
2022/10/23 06:40:01;;;;;;;51.73;29.33;;;;;;;14.04;93.77;100402.84;5060608;28;20265;-64
2022/10/23 06:42:30;;;;;;;101.37;34.27;;;;;;;14.12;93.96;100402.81;5056719;28;20234;-64
2022/10/23 06:44:58;;;;;;;83.30;31.77;;;;;;;14.09;95.16;100408.47;5062826;28;20831;-65
2022/10/23 06:47:32;;;;;;;83.87;30.80;;;;;;;14.18;94.89;100418.94;5058202;28;20209;-65
2022/10/23 06:50:00;;;;;;;71.67;29.57;;;;;;;14.25;93.88;100414.56;5059950;28;20242;-64
2022/10/23 06:52:30;;;;;;;76.20;29.23;;;;;;;14.21;93.81;100413.28;5064442;28;20234;-64
2022/10/23 06:55:14;;;;;;;54.40;27.17;;;;;;;14.19;93.65;100409.13;5065356;28;20205;-63
2022/10/23 06:57:44;;;;;;;62.87;27.73;;;;;;;14.22;93.60;100408.78;5058447;28;20215;-64
2022/10/23 07:00:13;;;;;;;54.77;26.53;;;;;;;14.17;93.39;100411.13;5057948;28;20241;-65
2022/10/23 07:02:40;;;;;;;55.27;24.50;;;;;;;14.17;93.14;100416.44;5059936;28;20207;-64
2022/10/23 07:05:09;;;;;;;47.97;26.37;;;;;;;14.23;92.54;100421.13;5065871;28;20219;-65
2022/10/23 07:07:40;;;;;;;43.77;24.40;;;;;;;14.31;91.92;100410.41;5059322;28;20235;-65
2022/10/23 07:10:08;;;;;;;42.30;23.10;;;;;;;14.35;91.12;100427.72;5057077;28;20283;-64
2022/10/23 07:12:36;;;;;;;38.50;23.53;;;;;;;14.42;90.67;100426.06;5056103;28;20576;-63
2022/10/23 07:15:06;;;;;;;45.57;22.10;;;;;;;14.43;90.88;100421.53;5052645;28;20274;-65
2022/10/23 07:17:34;;;;;;;40.07;20.73;;;;;;;14.45;90.83;100409.69;5057101;28;20212;-65
2022/10/23 07:20:01;;;;;;;34.80;20.03;;;;;;;14.52;90.50;100421.31;5055467;28;20246;-65
2022/10/23 07:22:29;;;;;;;39.90;21.07;;;;;;;14.54;91.11;100429.16;5052233;28;22058;-65
2022/10/23 07:24:57;;;;;;;38.13;20.63;;;;;;;14.59;90.78;100432.16;5052770;28;20312;-65
2022/10/23 07:27:25;;;;;;;34.28;21.65;;;;;;;14.74;90.73;100426.88;5050252;28;20449;-62
2022/10/23 07:29:53;;;;;;;36.00;18.60;;;;;;;14.74;90.30;100410.88;5044672;28;20220;-64
2022/10/23 07:32:23;;;;;;;29.87;17.90;;;;;;;14.79;90.33;100421.84;5049066;28;20231;-61
2022/10/23 07:34:51;;;;;;;34.37;19.90;;;;;;;14.83;89.69;100413.31;5043150;28;20210;-63
2022/10/23 07:37:18;;;;;;;39.00;20.13;;;;;;;14.91;89.78;100409.75;5043722;28;20740;-63
2022/10/23 07:39:46;;;;;;;33.80;19.37;;;;;;;14.94;89.68;100418.25;5044785;28;20214;-63
2022/10/23 07:42:14;;;;;;;31.53;17.83;;;;;;;14.99;89.49;100423.06;5045511;28;20255;-62
2022/10/23 07:44:41;;;;;;;27.87;16.67;;;;;;;15.01;89.96;100421.88;5051499;28;20208;-64
2022/10/23 07:47:09;;;;;;;31.60;17.33;;;;;;;15.02;89.79;100402.19;5059279;28;20298;-63
2022/10/23 07:49:38;;;;;;;28.73;17.03;;;;;;;15.07;90.10;100412.31;5059309;28;20797;-64
2022/10/23 07:52:06;;;;;;;33.97;18.93;;;;;;;15.08;89.87;100421.97;5050842;28;20696;-63
2022/10/23 07:54:33;;;;;;;38.40;19.37;;;;;;;15.11;89.48;100421.63;5058667;28;20207;-63
2022/10/23 07:57:01;;;;;;;41.67;21.60;;;;;;;15.14;88.85;100428.44;5053509;28;20823;-62
2022/10/23 07:59:29;;;;;;;41.20;22.43;;;;;;;15.16;88.36;100434.44;5056431;28;20273;-62
2022/10/23 08:02:02;;;;;;;41.43;20.63;;;;;;;15.15;88.68;100425.59;5053899;28;20208;-62
2022/10/23 08:04:30;;;;;;;44.17;21.87;;;;;;;15.19;88.52;100416.22;5056293;28;20208;-63
2022/10/23 08:06:59;;;;;;;43.50;21.20;;;;;;;15.30;88.50;100398.94;5052596;28;20215;-64
2022/10/23 08:09:27;;;;;;;43.17;22.60;;;;;;;15.37;88.86;100400.72;5056332;28;20258;-66
2022/10/23 08:11:55;;;;;;;43.03;21.93;;;;;;;15.48;88.59;100395.94;5051855;28;20695;-62
2022/10/23 08:14:22;;;;;;;43.23;22.03;;;;;;;15.56;88.16;100386.03;5053525;28;20228;-63
2022/10/23 08:16:50;;;;;;;45.43;23.20;;;;;;;15.63;87.90;100389.66;5057449;28;20253;-62
2022/10/23 08:19:18;;;;;;;45.33;23.67;;;;;;;15.77;87.18;100393.31;5058558;28;20675;-62
2022/10/23 08:21:45;;;;;;;46.73;22.17;;;;;;;15.90;86.96;100379.34;5049939;28;20207;-63
2022/10/23 08:24:15;;;;;;;38.97;21.67;;;;;;;16.04;86.21;100382.00;5052981;28;20239;-62
2022/10/23 08:26:42;;;;;;;44.07;23.93;;;;;;;16.17;85.24;100371.47;5055248;28;20230;-62
2022/10/23 08:29:10;;;;;;;41.87;23.17;;;;;;;16.32;84.87;100375.97;5052772;28;20238;-62
2022/10/23 08:31:38;;;;;;;50.50;23.30;;;;;;;16.41;85.55;100377.50;5056738;28;20227;-63
2022/10/23 08:34:05;;;;;;;43.47;22.03;;;;;;;16.56;83.86;100381.81;5061076;28;20623;-62
2022/10/23 08:36:35;;;;;;;33.00;17.53;;;;;;;16.66;82.56;100386.06;5054295;28;20237;-62
2022/10/23 08:39:02;;;;;;;39.90;20.00;;;;;;;16.86;81.94;100371.03;5055167;28;20212;-62
2022/10/23 08:41:34;;;;;;;34.67;18.30;;;;;;;17.11;81.01;100384.88;5051398;28;20212;-63
2022/10/23 08:44:08;;;;;;;30.73;16.80;;;;;;;17.23;79.71;100378.81;5051524;28;20204;-63
2022/10/23 08:46:40;;;;;;;32.20;15.60;;;;;;;17.11;79.07;100382.19;5056645;28;20233;-62
2022/10/23 08:49:20;;;;;;;25.63;13.67;;;;;;;17.13;79.40;100375.63;5056450;28;20204;-64
2022/10/23 08:51:52;;;;;;;23.93;13.60;;;;;;;17.13;80.32;100375.63;5052037;28;20239;-62
2022/10/23 08:54:25;;;;;;;21.40;12.40;;;;;;;17.13;80.44;100374.78;5056286;28;20199;-63
2022/10/23 08:57:00;;;;;;;16.57;10.83;;;;;;;17.04;80.54;100378.63;5050099;28;20223;-63
2022/10/23 08:59:32;;;;;;;21.57;12.70;;;;;;;17.05;80.81;100372.25;5056613;28;20199;-63
2022/10/23 09:02:04;;;;;;;21.53;11.77;;;;;;;17.09;80.46;100363.63;5052927;28;20295;-63
2022/10/23 09:04:32;;;;;;;18.77;11.50;;;;;;;17.22;80.01;100368.28;5059276;28;20206;-62
2022/10/23 09:07:12;;;;;;;21.53;11.10;;;;;;;17.82;78.29;100362.34;5055316;28;20228;-62
2022/10/23 09:09:55;;;;;;;15.67;10.03;;;;;;;18.58;73.83;100356.88;5065759;28;20302;-64
2022/10/23 09:12:25;;;;;;;17.90;9.73;;;;;;;18.94;71.49;100354.69;5047787;28;20228;-63
2022/10/23 09:15:19;;;;;;;13.63;8.97;;;;;;;18.88;69.94;100352.00;5058187;28;20207;-64
2022/10/23 09:17:53;;;;;;;16.33;8.83;;;;;;;18.68;71.99;100351.94;5046359;28;20237;-63
2022/10/23 09:20:24;;;;;;;13.37;8.47;;;;;;;18.51;71.88;100343.41;5049453;28;20215;-63
2022/10/23 09:22:54;;;;;;;19.97;9.53;;;;;;;18.31;72.72;100346.03;5052431;28;20207;-63
2022/10/23 09:25:25;;;;;;;16.60;9.43;;;;;;;18.14;73.46;100336.69;5055093;28;20262;-63
2022/10/23 09:27:57;;;;;;;14.20;9.63;;;;;;;18.16;73.51;100342.69;5052221;28;20286;-63
2022/10/23 09:30:34;;;;;;;13.90;8.70;;;;;;;18.33;73.81;100338.63;5051396;28;20211;-63
2022/10/23 09:33:14;;;;;;;14.10;7.67;;;;;;;18.27;73.00;100339.44;5052618;28;20223;-62
2022/10/23 09:35:52;;;;;;;16.10;9.23;;;;;;;18.04;74.25;100345.09;5046598;28;20204;-64
2022/10/23 09:38:31;;;;;;;13.90;8.73;;;;;;;17.92;74.74;100343.19;5054506;28;20871;-63
2022/10/23 09:41:02;;;;;;;15.67;8.87;;;;;;;17.69;75.81;100340.78;5053773;28;20215;-64
2022/10/23 09:43:32;;;;;;;16.70;8.93;;;;;;;17.54;76.72;100342.72;5056021;28;20652;-62
2022/10/23 09:46:01;;;;;;;17.07;10.23;;;;;;;17.35;77.57;100346.09;5050166;28;21792;-62
2022/10/23 09:48:29;;;;;;;17.23;9.43;;;;;;;17.15;78.82;100344.09;5050047;28;20212;-61
2022/10/23 09:50:59;;;;;;;12.30;8.37;;;;;;;17.08;80.06;100337.84;5049206;28;20200;-62
2022/10/23 09:53:32;;;;;;;16.70;9.30;;;;;;;17.07;79.39;100327.31;5050524;28;20231;-62
2022/10/23 09:56:02;;;;;;;13.10;9.60;;;;;;;17.03;80.77;100329.56;5053314;28;20261;-62
2022/10/23 09:58:35;;;;;;;12.10;8.20;;;;;;;17.01;80.36;100331.59;5051527;28;20575;-62
2022/10/23 10:01:04;;;;;;;16.60;9.30;;;;;;;16.99;80.05;100336.31;5053366;28;20214;-63
2022/10/23 10:03:32;;;;;;;13.87;8.33;;;;;;;17.05;79.95;100337.41;5056317;28;20204;-63
2022/10/23 10:06:01;;;;;;;16.10;8.40;;;;;;;17.16;80.46;100318.13;5054648;28;20215;-62
2022/10/23 10:08:44;;;;;;;17.77;8.83;;;;;;;17.38;79.29;100317.06;5050767;28;20217;-62
2022/10/23 10:11:19;;;;;;;13.33;8.07;;;;;;;17.50;78.72;100312.78;5046671;28;20204;-63
2022/10/23 10:13:59;;;;;;;12.70;8.50;;;;;;;17.59;77.91;100316.97;5046614;28;20235;-63
2022/10/23 10:16:36;;;;;;;12.60;8.80;;;;;;;17.61;78.12;100312.25;5052797;28;20204;-63
2022/10/23 10:19:16;;;;;;;14.77;8.20;;;;;;;17.59;77.97;100325.00;5052750;28;20261;-63
2022/10/23 10:21:52;;;;;;;15.57;8.77;;;;;;;17.53;78.32;100320.44;5047746;28;20215;-63
2022/10/23 10:24:25;;;;;;;14.60;8.77;;;;;;;17.49;78.61;100335.28;5044577;28;20237;-63
2022/10/23 10:27:01;;;;;;;15.10;9.37;;;;;;;17.49;78.23;100319.22;5057107;28;20242;-63
2022/10/23 10:29:45;;;;;;;17.70;9.90;;;;;;;17.51;77.53;100321.66;5050653;28;20211;-62
2022/10/23 10:32:24;;;;;;;21.20;13.40;;;;;;;17.57;78.23;100321.72;5055649;28;20204;-63
2022/10/23 10:35:00;;;;;;;18.23;11.33;;;;;;;17.60;78.49;100321.31;5056393;28;20263;-63
2022/10/23 10:37:41;;;;;;;21.93;14.63;;;;;;;17.55;80.36;100315.72;5050198;28;20633;-64
2022/10/23 10:40:22;;;;;;;24.73;14.33;;;;;;;17.53;81.07;100309.72;5052823;28;20242;-63
2022/10/23 10:43:04;;;;;;;19.77;12.30;;;;;;;17.53;80.37;100299.00;5052057;28;22281;-62
2022/10/23 10:45:37;;;;;;;27.60;13.97;;;;;;;17.54;81.48;100297.16;5056318;28;20214;-63
2022/10/23 10:48:21;;;;;;;23.80;15.27;;;;;;;17.60;81.82;100293.66;5055730;28;20208;-61
2022/10/23 10:50:53;;;;;;;24.97;15.17;;;;;;;17.87;80.42;100283.94;5055506;28;20268;-62
2022/10/23 10:53:28;;;;;;;22.93;14.47;;;;;;;19.03;76.37;100283.59;5052592;28;20227;-62
2022/10/23 10:55:59;;;;;;;30.10;17.07;;;;;;;19.60;73.52;100275.88;5054546;28;20211;-63
2022/10/23 10:58:40;;;;;;;30.53;17.43;;;;;;;19.85;70.53;100261.50;5058289;28;20723;-63
2022/10/23 11:01:17;;;;;;;27.57;15.47;;;;;;;19.91;70.04;100257.94;5054509;28;20222;-66
2022/10/23 11:03:50;;;;;;;23.33;14.07;;;;;;;20.02;69.55;100259.16;5052435;28;20299;-66
2022/10/23 11:06:22;;;;;;;21.07;12.93;;;;;;;20.24;67.69;100263.16;5050593;28;20208;-67
2022/10/23 11:08:50;;;;;;;23.20;13.60;;;;;;;20.15;68.04;100264.44;5048178;28;20261;-66
2022/10/23 11:11:39;;;;;;;27.07;13.80;;;;;;;20.18;68.22;100271.28;5051164;28;20629;-66
2022/10/23 11:14:14;;;;;;;28.10;14.10;;;;;;;20.06;69.00;100268.44;5052008;28;20635;-68
2022/10/23 11:16:47;;;;;;;24.33;15.10;;;;;;;20.03;69.51;100259.97;5051818;28;20200;-68
2022/10/23 11:19:22;;;;;;;21.40;12.63;;;;;;;19.97;70.86;100255.44;5057374;28;20211;-67
2022/10/23 11:21:58;;;;;;;19.43;12.73;;;;;;;19.74;71.80;100253.28;5052840;28;20642;-66
2022/10/23 11:24:54;;;;;;;15.33;10.10;;;;;;;19.75;71.26;100245.00;5056480;28;20239;-66
2022/10/23 11:27:48;;;;;;;14.27;9.97;;;;;;;19.82;71.36;100231.50;5056297;28;20215;-66